sensor_id;sensor_type;location;lat;lon;timestamp;pressure;altitude;pressure_sealevel;temperature;humidity
15884;BME280;8040;50.254;10.960;2023-01-16T00:01:02;96987.78;;;6.19;64.39
15884;BME280;8040;50.254;10.960;2023-01-16T00:03:29;96982.09;;;6.21;64.54
15884;BME280;8040;50.254;10.960;2023-01-16T00:05:57;96990.56;;;6.28;64.65
15884;BME280;8040;50.254;10.960;2023-01-16T00:08:22;96997.84;;;6.27;65.16
15884;BME280;8040;50.254;10.960;2023-01-16T00:10:47;96984.97;;;6.24;64.67
15884;BME280;8040;50.254;10.960;2023-01-16T00:13:13;96970.44;;;6.25;65.06
15884;BME280;8040;50.254;10.960;2023-01-16T00:15:44;96980.88;;;6.27;65.22
15884;BME280;8040;50.254;10.960;2023-01-16T00:18:10;96988.44;;;6.38;64.61
15884;BME280;8040;50.254;10.960;2023-01-16T00:20:35;96957.56;;;6.22;64.16
15884;BME280;8040;50.254;10.960;2023-01-16T00:23:00;96949.00;;;6.20;64.75
15884;BME280;8040;50.254;10.960;2023-01-16T00:25:26;96961.16;;;6.31;64.47
15884;BME280;8040;50.254;10.960;2023-01-16T00:27:51;96959.66;;;6.25;64.06
15884;BME280;8040;50.254;10.960;2023-01-16T00:30:17;96954.47;;;6.29;64.72
15884;BME280;8040;50.254;10.960;2023-01-16T00:32:44;96953.19;;;6.26;64.19
15884;BME280;8040;50.254;10.960;2023-01-16T00:35:10;96953.19;;;6.26;64.06
15884;BME280;8040;50.254;10.960;2023-01-16T00:37:35;96933.16;;;6.19;64.14
15884;BME280;8040;50.254;10.960;2023-01-16T00:40:00;96947.34;;;6.33;64.74
15884;BME280;8040;50.254;10.960;2023-01-16T00:42:26;96935.91;;;6.27;64.33
15884;BME280;8040;50.254;10.960;2023-01-16T00:44:51;96934.22;;;6.31;64.13
15884;BME280;8040;50.254;10.960;2023-01-16T00:47:16;96924.16;;;6.23;64.08
15884;BME280;8040;50.254;10.960;2023-01-16T00:49:42;96920.88;;;6.26;64.23
15884;BME280;8040;50.254;10.960;2023-01-16T00:52:07;96918.28;;;6.21;63.83
15884;BME280;8040;50.254;10.960;2023-01-16T00:54:32;96921.97;;;6.25;63.80
15884;BME280;8040;50.254;10.960;2023-01-16T00:56:57;96919.09;;;6.22;64.05
15884;BME280;8040;50.254;10.960;2023-01-16T00:59:23;96905.41;;;6.18;64.03
15884;BME280;8040;50.254;10.960;2023-01-16T01:01:48;96904.16;;;6.16;64.30
15884;BME280;8040;50.254;10.960;2023-01-16T01:04:13;96901.84;;;6.23;64.22
15884;BME280;8040;50.254;10.960;2023-01-16T01:06:39;96892.09;;;6.13;64.33
15884;BME280;8040;50.254;10.960;2023-01-16T01:09:05;96892.22;;;6.08;64.27
15884;BME280;8040;50.254;10.960;2023-01-16T01:11:30;96889.25;;;6.18;64.49
15884;BME280;8040;50.254;10.960;2023-01-16T01:13:56;96888.31;;;6.14;64.35
15884;BME280;8040;50.254;10.960;2023-01-16T01:16:23;96886.09;;;6.16;63.79
15884;BME280;8040;50.254;10.960;2023-01-16T01:18:48;96884.22;;;6.17;64.19
15884;BME280;8040;50.254;10.960;2023-01-16T01:21:14;96875.63;;;6.15;64.00
15884;BME280;8040;50.254;10.960;2023-01-16T01:23:39;96876.91;;;6.17;63.93
15884;BME280;8040;50.254;10.960;2023-01-16T01:26:09;96866.63;;;5.97;63.60
15884;BME280;8040;50.254;10.960;2023-01-16T01:28:37;96876.97;;;6.04;64.68
15884;BME280;8040;50.254;10.960;2023-01-16T01:31:04;96862.53;;;6.00;64.57
15884;BME280;8040;50.254;10.960;2023-01-16T01:33:30;96863.94;;;5.84;64.17
15884;BME280;8040;50.254;10.960;2023-01-16T01:35:56;96857.78;;;5.83;64.14
15884;BME280;8040;50.254;10.960;2023-01-16T01:38:21;96863.75;;;5.80;64.96
15884;BME280;8040;50.254;10.960;2023-01-16T01:40:46;96857.38;;;5.76;64.64
15884;BME280;8040;50.254;10.960;2023-01-16T01:43:13;96857.50;;;5.71;63.91
15884;BME280;8040;50.254;10.960;2023-01-16T01:45:39;96848.72;;;5.66;64.98
15884;BME280;8040;50.254;10.960;2023-01-16T01:50:47;96850.34;;;5.53;64.75
15884;BME280;8040;50.254;10.960;2023-01-16T01:53:19;96834.50;;;5.38;65.52
15884;BME280;8040;50.254;10.960;2023-01-16T01:55:46;96823.88;;;5.33;65.86
15884;BME280;8040;50.254;10.960;2023-01-16T01:58:14;96828.13;;;5.48;66.49
15884;BME280;8040;50.254;10.960;2023-01-16T02:00:46;96800.16;;;5.49;66.44
15884;BME280;8040;50.254;10.960;2023-01-16T02:03:15;96815.88;;;5.55;66.03
15884;BME280;8040;50.254;10.960;2023-01-16T02:05:46;96809.38;;;5.56;65.88
15884;BME280;8040;50.254;10.960;2023-01-16T02:08:15;96801.22;;;5.48;65.32
15884;BME280;8040;50.254;10.960;2023-01-16T02:10:45;96796.66;;;5.48;65.83
15884;BME280;8040;50.254;10.960;2023-01-16T02:13:12;96783.91;;;5.54;65.43
15884;BME280;8040;50.254;10.960;2023-01-16T02:15:38;96791.66;;;5.55;64.97
15884;BME280;8040;50.254;10.960;2023-01-16T02:18:27;96771.06;;;5.51;65.42
15884;BME280;8040;50.254;10.960;2023-01-16T02:21:41;96777.00;;;5.61;65.29
15884;BME280;8040;50.254;10.960;2023-01-16T02:35:05;96757.63;;;5.51;65.10
15884;BME280;8040;50.254;10.960;2023-01-16T02:40:02;96754.91;;;5.64;65.14
15884;BME280;8040;50.254;10.960;2023-01-16T02:42:44;96745.22;;;5.63;65.50
15884;BME280;8040;50.254;10.960;2023-01-16T02:45:26;96739.16;;;5.58;65.03
15884;BME280;8040;50.254;10.960;2023-01-16T02:50:52;96736.28;;;5.54;65.05
15884;BME280;8040;50.254;10.960;2023-01-16T02:56:09;96719.41;;;5.40;64.23
15884;BME280;8040;50.254;10.960;2023-01-16T02:58:46;96718.56;;;5.53;64.51
15884;BME280;8040;50.254;10.960;2023-01-16T03:01:12;96703.72;;;5.56;64.52
15884;BME280;8040;50.254;10.960;2023-01-16T03:06:36;96689.34;;;5.38;64.56
15884;BME280;8040;50.254;10.960;2023-01-16T03:11:55;96699.97;;;5.43;64.95
15884;BME280;8040;50.254;10.960;2023-01-16T03:18:10;96680.31;;;5.56;64.58
15884;BME280;8040;50.254;10.960;2023-01-16T03:20:11;96664.56;;;5.41;64.46
15884;BME280;8040;50.254;10.960;2023-01-16T03:22:51;96658.06;;;5.42;64.54
15884;BME280;8040;50.254;10.960;2023-01-16T03:28:07;96659.91;;;5.55;64.78
15884;BME280;8040;50.254;10.960;2023-01-16T03:30:54;96645.69;;;5.55;64.44
15884;BME280;8040;50.254;10.960;2023-01-16T03:36:36;96639.00;;;5.52;63.63
15884;BME280;8040;50.254;10.960;2023-01-16T03:39:07;96626.06;;;5.54;63.81
15884;BME280;8040;50.254;10.960;2023-01-16T03:41:35;96621.47;;;5.55;64.14
15884;BME280;8040;50.254;10.960;2023-01-16T03:44:07;96607.22;;;5.54;64.32
15884;BME280;8040;50.254;10.960;2023-01-16T03:46:43;96605.03;;;5.56;64.16
15884;BME280;8040;50.254;10.960;2023-01-16T03:49:14;96600.00;;;5.63;64.23
15884;BME280;8040;50.254;10.960;2023-01-16T03:51:48;96591.28;;;5.58;64.26
15884;BME280;8040;50.254;10.960;2023-01-16T03:57:09;96592.78;;;5.50;63.14
15884;BME280;8040;50.254;10.960;2023-01-16T03:59:37;96580.63;;;5.53;63.64
15884;BME280;8040;50.254;10.960;2023-01-16T04:02:11;96568.31;;;5.52;64.00
15884;BME280;8040;50.254;10.960;2023-01-16T04:04:49;96561.38;;;5.59;64.48
15884;BME280;8040;50.254;10.960;2023-01-16T04:07:41;96570.09;;;5.65;63.94
15884;BME280;8040;50.254;10.960;2023-01-16T04:10:20;96548.25;;;5.58;64.17
15884;BME280;8040;50.254;10.960;2023-01-16T04:12:51;96538.72;;;5.52;64.08
15884;BME280;8040;50.254;10.960;2023-01-16T04:15:19;96551.97;;;5.70;63.87
15884;BME280;8040;50.254;10.960;2023-01-16T04:17:45;96539.25;;;5.62;63.94
15884;BME280;8040;50.254;10.960;2023-01-16T04:20:11;96541.94;;;5.62;64.28
15884;BME280;8040;50.254;10.960;2023-01-16T04:22:36;96548.91;;;5.63;64.21
15884;BME280;8040;50.254;10.960;2023-01-16T04:25:05;96543.03;;;5.61;64.14
15884;BME280;8040;50.254;10.960;2023-01-16T04:27:32;96519.31;;;5.63;64.37
15884;BME280;8040;50.254;10.960;2023-01-16T04:29:57;96527.59;;;5.67;63.31
15884;BME280;8040;50.254;10.960;2023-01-16T04:32:22;96515.38;;;5.69;63.42
15884;BME280;8040;50.254;10.960;2023-01-16T04:34:49;96505.22;;;5.58;64.06
15884;BME280;8040;50.254;10.960;2023-01-16T04:37:15;96493.06;;;5.60;63.76
15884;BME280;8040;50.254;10.960;2023-01-16T04:39:42;96487.25;;;5.67;63.76
15884;BME280;8040;50.254;10.960;2023-01-16T04:42:08;96478.84;;;5.68;64.24
15884;BME280;8040;50.254;10.960;2023-01-16T04:44:34;96475.53;;;5.71;63.71
15884;BME280;8040;50.254;10.960;2023-01-16T04:46:59;96462.41;;;5.70;63.87
15884;BME280;8040;50.254;10.960;2023-01-16T04:49:24;96447.69;;;5.67;63.52
15884;BME280;8040;50.254;10.960;2023-01-16T04:51:50;96434.09;;;5.72;63.52
15884;BME280;8040;50.254;10.960;2023-01-16T04:54:17;96441.53;;;5.75;63.38
15884;BME280;8040;50.254;10.960;2023-01-16T04:56:44;96437.13;;;5.79;63.69
15884;BME280;8040;50.254;10.960;2023-01-16T04:59:10;96423.19;;;5.77;63.82
15884;BME280;8040;50.254;10.960;2023-01-16T05:01:38;96414.97;;;5.74;63.93
15884;BME280;8040;50.254;10.960;2023-01-16T05:04:05;96426.09;;;5.89;63.86
15884;BME280;8040;50.254;10.960;2023-01-16T05:06:31;96423.56;;;5.84;63.65
15884;BME280;8040;50.254;10.960;2023-01-16T05:08:57;96416.25;;;5.76;63.83
15884;BME280;8040;50.254;10.960;2023-01-16T05:11:22;96420.97;;;5.79;63.41
15884;BME280;8040;50.254;10.960;2023-01-16T05:13:47;96416.72;;;5.78;63.46
15884;BME280;8040;50.254;10.960;2023-01-16T05:16:13;96408.03;;;5.81;64.24
15884;BME280;8040;50.254;10.960;2023-01-16T05:18:38;96408.38;;;5.88;64.01
15884;BME280;8040;50.254;10.960;2023-01-16T05:21:03;96409.97;;;5.89;63.87
15884;BME280;8040;50.254;10.960;2023-01-16T05:23:31;96417.88;;;5.94;63.64
15884;BME280;8040;50.254;10.960;2023-01-16T05:25:59;96416.78;;;5.95;63.69
15884;BME280;8040;50.254;10.960;2023-01-16T05:28:24;96401.56;;;5.91;63.60
15884;BME280;8040;50.254;10.960;2023-01-16T05:30:50;96405.38;;;5.98;63.66
15884;BME280;8040;50.254;10.960;2023-01-16T05:33:15;96396.03;;;5.96;64.43
15884;BME280;8040;50.254;10.960;2023-01-16T05:35:41;96401.91;;;5.98;63.45
15884;BME280;8040;50.254;10.960;2023-01-16T05:38:09;96402.53;;;6.03;63.34
15884;BME280;8040;50.254;10.960;2023-01-16T05:40:37;96386.53;;;5.98;63.01
15884;BME280;8040;50.254;10.960;2023-01-16T05:43:02;96384.81;;;6.02;63.11
15884;BME280;8040;50.254;10.960;2023-01-16T05:45:30;96384.97;;;5.97;63.50
15884;BME280;8040;50.254;10.960;2023-01-16T05:47:55;96381.31;;;6.02;62.64
15884;BME280;8040;50.254;10.960;2023-01-16T05:50:21;96387.34;;;6.07;62.65
15884;BME280;8040;50.254;10.960;2023-01-16T05:52:46;96371.97;;;5.99;62.75
15884;BME280;8040;50.254;10.960;2023-01-16T05:55:11;96362.47;;;5.93;62.53
15884;BME280;8040;50.254;10.960;2023-01-16T05:57:37;96376.91;;;6.06;62.42
15884;BME280;8040;50.254;10.960;2023-01-16T06:00:04;96372.13;;;6.11;62.15
15884;BME280;8040;50.254;10.960;2023-01-16T06:02:29;96344.59;;;6.06;62.46
15884;BME280;8040;50.254;10.960;2023-01-16T06:04:56;96342.22;;;6.04;62.24
15884;BME280;8040;50.254;10.960;2023-01-16T06:07:21;96359.50;;;6.12;62.38
15884;BME280;8040;50.254;10.960;2023-01-16T06:09:47;96349.50;;;6.12;61.93
15884;BME280;8040;50.254;10.960;2023-01-16T06:12:14;96337.97;;;6.12;62.07
15884;BME280;8040;50.254;10.960;2023-01-16T06:14:40;96335.56;;;6.02;62.43
15884;BME280;8040;50.254;10.960;2023-01-16T06:17:05;96331.31;;;6.01;62.23
15884;BME280;8040;50.254;10.960;2023-01-16T06:19:31;96317.06;;;6.00;62.45
15884;BME280;8040;50.254;10.960;2023-01-16T06:21:56;96326.88;;;6.05;62.01
15884;BME280;8040;50.254;10.960;2023-01-16T06:24:21;96320.22;;;6.02;62.08
15884;BME280;8040;50.254;10.960;2023-01-16T06:26:47;96322.94;;;6.02;61.28
15884;BME280;8040;50.254;10.960;2023-01-16T06:29:12;96310.09;;;5.99;61.81
15884;BME280;8040;50.254;10.960;2023-01-16T06:31:38;96305.97;;;6.02;61.49
15884;BME280;8040;50.254;10.960;2023-01-16T06:34:03;96300.28;;;6.03;61.30
15884;BME280;8040;50.254;10.960;2023-01-16T06:36:29;96301.06;;;6.12;61.45
15884;BME280;8040;50.254;10.960;2023-01-16T06:38:54;96299.47;;;6.11;61.18
15884;BME280;8040;50.254;10.960;2023-01-16T06:41:19;96288.72;;;6.11;61.62
15884;BME280;8040;50.254;10.960;2023-01-16T06:43:45;96286.22;;;6.06;61.24
15884;BME280;8040;50.254;10.960;2023-01-16T06:46:10;96268.59;;;6.09;61.24
15884;BME280;8040;50.254;10.960;2023-01-16T06:48:35;96275.09;;;5.99;61.35
15884;BME280;8040;50.254;10.960;2023-01-16T06:51:01;96252.50;;;5.92;61.32
15884;BME280;8040;50.254;10.960;2023-01-16T06:53:26;96261.50;;;5.87;61.48
15884;BME280;8040;50.254;10.960;2023-01-16T06:55:52;96252.00;;;5.81;61.38
15884;BME280;8040;50.254;10.960;2023-01-16T06:58:17;96254.53;;;5.86;62.04
15884;BME280;8040;50.254;10.960;2023-01-16T07:00:42;96240.78;;;5.96;61.46
15884;BME280;8040;50.254;10.960;2023-01-16T07:03:08;96238.56;;;5.98;61.45
15884;BME280;8040;50.254;10.960;2023-01-16T07:05:34;96219.88;;;6.02;61.09
15884;BME280;8040;50.254;10.960;2023-01-16T07:07:59;96219.72;;;5.98;60.84
15884;BME280;8040;50.254;10.960;2023-01-16T07:10:25;96222.56;;;6.02;60.80
15884;BME280;8040;50.254;10.960;2023-01-16T07:12:53;96229.50;;;6.11;61.13
15884;BME280;8040;50.254;10.960;2023-01-16T07:15:20;96217.47;;;6.09;60.54
15884;BME280;8040;50.254;10.960;2023-01-16T07:18:05;96204.81;;;6.09;59.99
15884;BME280;8040;50.254;10.960;2023-01-16T07:20:54;96199.59;;;6.04;60.29
15884;BME280;8040;50.254;10.960;2023-01-16T07:23:40;96191.38;;;6.01;60.25
15884;BME280;8040;50.254;10.960;2023-01-16T07:26:07;96191.69;;;5.99;60.08
15884;BME280;8040;50.254;10.960;2023-01-16T07:28:33;96194.53;;;6.03;60.15
15884;BME280;8040;50.254;10.960;2023-01-16T07:31:00;96185.25;;;6.00;60.44
15884;BME280;8040;50.254;10.960;2023-01-16T07:33:28;96177.47;;;5.99;60.28
15884;BME280;8040;50.254;10.960;2023-01-16T07:35:53;96180.31;;;6.02;60.52
15884;BME280;8040;50.254;10.960;2023-01-16T07:38:19;96156.44;;;5.92;60.31
15884;BME280;8040;50.254;10.960;2023-01-16T07:40:44;96172.88;;;5.99;60.88
15884;BME280;8040;50.254;10.960;2023-01-16T07:43:09;96169.84;;;6.09;60.91
15884;BME280;8040;50.254;10.960;2023-01-16T07:45:35;96160.97;;;6.09;60.53
15884;BME280;8040;50.254;10.960;2023-01-16T07:48:00;96155.47;;;5.97;60.79
15884;BME280;8040;50.254;10.960;2023-01-16T07:50:26;96155.16;;;5.90;60.66
15884;BME280;8040;50.254;10.960;2023-01-16T07:52:52;96156.13;;;5.94;60.93
15884;BME280;8040;50.254;10.960;2023-01-16T07:55:17;96151.22;;;5.87;61.07
15884;BME280;8040;50.254;10.960;2023-01-16T07:57:42;96147.13;;;5.81;61.25
15884;BME280;8040;50.254;10.960;2023-01-16T08:00:09;96139.38;;;5.80;61.27
15884;BME280;8040;50.254;10.960;2023-01-16T08:02:39;96132.72;;;5.77;61.25
15884;BME280;8040;50.254;10.960;2023-01-16T08:05:05;96139.38;;;5.80;60.73
15884;BME280;8040;50.254;10.960;2023-01-16T08:07:30;96124.50;;;5.74;60.22
15884;BME280;8040;50.254;10.960;2023-01-16T08:09:56;96133.81;;;5.85;60.46
15884;BME280;8040;50.254;10.960;2023-01-16T08:12:21;96115.47;;;5.78;60.65
15884;BME280;8040;50.254;10.960;2023-01-16T08:14:47;96130.03;;;5.86;60.68
15884;BME280;8040;50.254;10.960;2023-01-16T08:17:12;96105.19;;;5.80;60.03
15884;BME280;8040;50.254;10.960;2023-01-16T08:19:37;96108.97;;;5.79;60.27
15884;BME280;8040;50.254;10.960;2023-01-16T08:22:03;96100.91;;;5.79;60.66
15884;BME280;8040;50.254;10.960;2023-01-16T08:24:28;96108.50;;;5.86;60.49
15884;BME280;8040;50.254;10.960;2023-01-16T08:26:55;96108.03;;;5.84;60.50
15884;BME280;8040;50.254;10.960;2023-01-16T08:29:20;96112.31;;;5.76;60.47
15884;BME280;8040;50.254;10.960;2023-01-16T08:31:46;96101.88;;;5.75;60.02
15884;BME280;8040;50.254;10.960;2023-01-16T08:34:11;96103.16;;;5.69;59.81
15884;BME280;8040;50.254;10.960;2023-01-16T08:36:36;96095.09;;;5.60;60.03
15884;BME280;8040;50.254;10.960;2023-01-16T08:39:02;96096.22;;;5.59;60.37
15884;BME280;8040;50.254;10.960;2023-01-16T08:41:27;96085.75;;;5.58;59.71
15884;BME280;8040;50.254;10.960;2023-01-16T08:44:11;96075.81;;;5.50;60.09
15884;BME280;8040;50.254;10.960;2023-01-16T08:46:59;96068.53;;;5.59;59.37
15884;BME280;8040;50.254;10.960;2023-01-16T08:49:45;96049.56;;;5.55;60.04
15884;BME280;8040;50.254;10.960;2023-01-16T08:52:30;96064.56;;;5.65;59.31
15884;BME280;8040;50.254;10.960;2023-01-16T08:54:57;96061.41;;;5.63;58.76
15884;BME280;8040;50.254;10.960;2023-01-16T08:57:24;96052.22;;;5.64;59.74
15884;BME280;8040;50.254;10.960;2023-01-16T08:59:49;96050.78;;;5.66;59.21
15884;BME280;8040;50.254;10.960;2023-01-16T09:02:14;96042.28;;;5.64;58.85
15884;BME280;8040;50.254;10.960;2023-01-16T09:04:41;96035.53;;;5.79;58.68
15884;BME280;8040;50.254;10.960;2023-01-16T09:07:08;96035.09;;;5.85;59.09
15884;BME280;8040;50.254;10.960;2023-01-16T09:09:34;96030.69;;;5.81;58.91
15884;BME280;8040;50.254;10.960;2023-01-16T09:11:59;96018.19;;;5.76;59.60
15884;BME280;8040;50.254;10.960;2023-01-16T09:14:43;96015.31;;;5.81;59.06
15884;BME280;8040;50.254;10.960;2023-01-16T09:17:09;96007.06;;;5.86;58.90
15884;BME280;8040;50.254;10.960;2023-01-16T09:19:35;95994.75;;;5.85;58.52
15884;BME280;8040;50.254;10.960;2023-01-16T09:22:01;96003.41;;;5.91;58.70
15884;BME280;8040;50.254;10.960;2023-01-16T09:24:26;95993.00;;;5.89;58.42
15884;BME280;8040;50.254;10.960;2023-01-16T09:26:52;95986.81;;;5.89;58.48
15884;BME280;8040;50.254;10.960;2023-01-16T09:29:19;95982.19;;;5.98;59.05
15884;BME280;8040;50.254;10.960;2023-01-16T09:31:45;95966.38;;;5.96;59.13
15884;BME280;8040;50.254;10.960;2023-01-16T09:34:10;95967.38;;;6.12;58.80
15884;BME280;8040;50.254;10.960;2023-01-16T09:36:35;95956.28;;;6.14;58.35
15884;BME280;8040;50.254;10.960;2023-01-16T09:39:01;95963.59;;;6.34;58.86
15884;BME280;8040;50.254;10.960;2023-01-16T09:41:27;95943.03;;;6.29;58.05
15884;BME280;8040;50.254;10.960;2023-01-16T09:44:16;95930.38;;;6.30;57.97
15884;BME280;8040;50.254;10.960;2023-01-16T09:46:45;95945.28;;;6.27;57.66
15884;BME280;8040;50.254;10.960;2023-01-16T09:51:58;95910.78;;;6.21;57.27
15884;BME280;8040;50.254;10.960;2023-01-16T09:54:50;95931.88;;;6.39;56.93
15884;BME280;8040;50.254;10.960;2023-01-16T09:57:36;95934.91;;;6.38;56.77
15884;BME280;8040;50.254;10.960;2023-01-16T10:00:23;95919.06;;;6.36;56.79
15884;BME280;8040;50.254;10.960;2023-01-16T10:02:49;95940.94;;;6.35;56.76
15884;BME280;8040;50.254;10.960;2023-01-16T10:05:16;95933.19;;;6.33;57.25
15884;BME280;8040;50.254;10.960;2023-01-16T10:10:38;95929.38;;;6.34;57.50
15884;BME280;8040;50.254;10.960;2023-01-16T10:13:15;95908.53;;;6.31;57.60
15884;BME280;8040;50.254;10.960;2023-01-16T10:16:05;95907.66;;;6.39;57.45
15884;BME280;8040;50.254;10.960;2023-01-16T10:29:39;95824.75;;;6.12;57.44
15884;BME280;8040;50.254;10.960;2023-01-16T10:32:26;95818.53;;;6.20;57.72
15884;BME280;8040;50.254;10.960;2023-01-16T10:37:19;95812.47;;;6.23;58.64
15884;BME280;8040;50.254;10.960;2023-01-16T10:39:47;95827.53;;;6.36;58.62
15884;BME280;8040;50.254;10.960;2023-01-16T10:42:14;95823.44;;;6.51;58.62
15884;BME280;8040;50.254;10.960;2023-01-16T10:47:49;95809.00;;;6.55;56.93
15884;BME280;8040;50.254;10.960;2023-01-16T10:50:35;95804.75;;;6.66;56.75
15884;BME280;8040;50.254;10.960;2023-01-16T10:53:06;95783.66;;;6.68;57.21
15884;BME280;8040;50.254;10.960;2023-01-16T10:55:34;95763.09;;;6.64;56.35
15884;BME280;8040;50.254;10.960;2023-01-16T10:58:06;95750.91;;;6.78;56.30
15884;BME280;8040;50.254;10.960;2023-01-16T11:00:34;95749.00;;;6.79;56.11
15884;BME280;8040;50.254;10.960;2023-01-16T11:03:08;95737.09;;;6.92;55.43
15884;BME280;8040;50.254;10.960;2023-01-16T11:05:40;95730.03;;;7.11;55.03
15884;BME280;8040;50.254;10.960;2023-01-16T11:08:12;95716.78;;;7.18;54.01
15884;BME280;8040;50.254;10.960;2023-01-16T11:10:42;95712.81;;;7.28;54.08
15884;BME280;8040;50.254;10.960;2023-01-16T11:13:19;95710.22;;;7.43;53.16
15884;BME280;8040;50.254;10.960;2023-01-16T11:18:57;95692.88;;;7.83;53.39
15884;BME280;8040;50.254;10.960;2023-01-16T11:21:24;95686.91;;;7.90;52.72
15884;BME280;8040;50.254;10.960;2023-01-16T11:24:19;95681.63;;;7.93;52.36
15884;BME280;8040;50.254;10.960;2023-01-16T11:26:49;95660.03;;;7.93;52.60
15884;BME280;8040;50.254;10.960;2023-01-16T11:29:17;95661.25;;;7.96;51.55
15884;BME280;8040;50.254;10.960;2023-01-16T11:31:48;95658.97;;;7.98;51.55
15884;BME280;8040;50.254;10.960;2023-01-16T11:34:18;95641.56;;;7.95;51.74
15884;BME280;8040;50.254;10.960;2023-01-16T11:36:44;95645.97;;;7.88;50.89
15884;BME280;8040;50.254;10.960;2023-01-16T11:39:19;95636.56;;;7.82;51.66
15884;BME280;8040;50.254;10.960;2023-01-16T11:41:52;95621.75;;;7.76;51.78
15884;BME280;8040;50.254;10.960;2023-01-16T11:44:30;95627.69;;;7.81;51.38
15884;BME280;8040;50.254;10.960;2023-01-16T11:47:22;95619.09;;;7.91;51.63
15884;BME280;8040;50.254;10.960;2023-01-16T11:49:52;95620.78;;;7.96;51.96
15884;BME280;8040;50.254;10.960;2023-01-16T11:52:20;95612.22;;;7.94;51.17
15884;BME280;8040;50.254;10.960;2023-01-16T11:55:01;95615.78;;;7.98;51.66
15884;BME280;8040;50.254;10.960;2023-01-16T11:58:29;95611.09;;;7.95;51.39
15884;BME280;8040;50.254;10.960;2023-01-16T12:03:52;95620.16;;;8.18;50.94
15884;BME280;8040;50.254;10.960;2023-01-16T12:14:26;95584.66;;;8.16;50.36
15884;BME280;8040;50.254;10.960;2023-01-16T12:17:16;95589.88;;;8.09;50.61
15884;BME280;8040;50.254;10.960;2023-01-16T12:19:59;95589.41;;;8.07;51.11
15884;BME280;8040;50.254;10.960;2023-01-16T12:25:16;95572.09;;;7.92;51.15
15884;BME280;8040;50.254;10.960;2023-01-16T12:28:02;95547.81;;;7.77;51.01
15884;BME280;8040;50.254;10.960;2023-01-16T12:45:33;95545.88;;;7.93;51.86
15884;BME280;8040;50.254;10.960;2023-01-16T12:59:22;95512.28;;;8.06;51.50
15884;BME280;8040;50.254;10.960;2023-01-16T13:01:53;95512.09;;;8.14;51.34
15884;BME280;8040;50.254;10.960;2023-01-16T13:04:33;95514.72;;;8.11;50.36
15884;BME280;8040;50.254;10.960;2023-01-16T13:07:00;95530.44;;;8.21;50.10
15884;BME280;8040;50.254;10.960;2023-01-16T13:12:49;95513.31;;;8.17;50.51
15884;BME280;8040;50.254;10.960;2023-01-16T13:15:37;95501.63;;;8.13;50.39
15884;BME280;8040;50.254;10.960;2023-01-16T13:18:11;95492.97;;;8.04;50.13
15884;BME280;8040;50.254;10.960;2023-01-16T13:20:42;95496.16;;;8.09;50.11
15884;BME280;8040;50.254;10.960;2023-01-16T13:23:32;95480.50;;;8.15;50.02
15884;BME280;8040;50.254;10.960;2023-01-16T13:26:03;95491.16;;;8.23;50.73
15884;BME280;8040;50.254;10.960;2023-01-16T13:31:38;95475.94;;;8.34;50.39
15884;BME280;8040;50.254;10.960;2023-01-16T13:34:19;95464.22;;;8.27;50.04
15884;BME280;8040;50.254;10.960;2023-01-16T13:42:05;95448.03;;;8.27;49.36
15884;BME280;8040;50.254;10.960;2023-01-16T13:44:37;95448.09;;;8.30;49.12
15884;BME280;8040;50.254;10.960;2023-01-16T13:47:27;95441.09;;;8.45;49.45
15884;BME280;8040;50.254;10.960;2023-01-16T13:52:56;95426.88;;;8.48;48.62
15884;BME280;8040;50.254;10.960;2023-01-16T13:55:38;95433.69;;;8.42;48.01
15884;BME280;8040;50.254;10.960;2023-01-16T13:58:26;95435.75;;;8.48;47.88
15884;BME280;8040;50.254;10.960;2023-01-16T14:01:03;95427.44;;;8.38;48.10
15884;BME280;8040;50.254;10.960;2023-01-16T14:03:31;95421.88;;;8.31;47.92
15884;BME280;8040;50.254;10.960;2023-01-16T14:11:35;95400.84;;;8.21;48.84
15884;BME280;8040;50.254;10.960;2023-01-16T14:17:29;95398.44;;;8.35;49.43
15884;BME280;8040;50.254;10.960;2023-01-16T14:20:00;95394.09;;;8.30;48.11
15884;BME280;8040;50.254;10.960;2023-01-16T14:22:34;95388.91;;;8.22;48.34
15884;BME280;8040;50.254;10.960;2023-01-16T14:25:00;95386.84;;;8.19;49.03
15884;BME280;8040;50.254;10.960;2023-01-16T14:27:33;95383.31;;;8.15;49.22
15884;BME280;8040;50.254;10.960;2023-01-16T14:30:01;95385.69;;;8.01;48.09
15884;BME280;8040;50.254;10.960;2023-01-16T14:32:29;95386.47;;;8.01;48.60
15884;BME280;8040;50.254;10.960;2023-01-16T14:37:39;95371.72;;;8.14;49.33
15884;BME280;8040;50.254;10.960;2023-01-16T14:42:52;95376.41;;;7.98;49.78
15884;BME280;8040;50.254;10.960;2023-01-16T14:45:41;95402.75;;;8.20;53.55
15884;BME280;8040;50.254;10.960;2023-01-16T14:51:24;95395.34;;;8.17;55.38
15884;BME280;8040;50.254;10.960;2023-01-16T14:54:31;95388.50;;;8.04;56.85
15884;BME280;8040;50.254;10.960;2023-01-16T14:57:19;95375.28;;;7.99;59.11
15884;BME280;8040;50.254;10.960;2023-01-16T15:02:25;95372.16;;;7.82;60.34
15884;BME280;8040;50.254;10.960;2023-01-16T15:10:11;95357.84;;;7.62;62.35
15884;BME280;8040;50.254;10.960;2023-01-16T15:12:42;95341.94;;;7.42;62.50
15884;BME280;8040;50.254;10.960;2023-01-16T15:15:28;95331.88;;;7.23;62.68
15884;BME280;8040;50.254;10.960;2023-01-16T15:17:58;95318.47;;;7.27;63.21
15884;BME280;8040;50.254;10.960;2023-01-16T15:20:44;95311.94;;;7.13;63.23
15884;BME280;8040;50.254;10.960;2023-01-16T15:23:33;95309.16;;;7.24;64.55
15884;BME280;8040;50.254;10.960;2023-01-16T15:31:19;95291.25;;;7.32;63.19
15884;BME280;8040;50.254;10.960;2023-01-16T15:34:20;95282.75;;;7.15;63.22
15884;BME280;8040;50.254;10.960;2023-01-16T15:36:46;95284.31;;;7.00;63.34
15884;BME280;8040;50.254;10.960;2023-01-16T15:39:41;95285.88;;;7.01;63.97
15884;BME280;8040;50.254;10.960;2023-01-16T15:42:20;95265.13;;;6.86;63.93
15884;BME280;8040;50.254;10.960;2023-01-16T15:53:22;95246.63;;;6.69;64.90
15884;BME280;8040;50.254;10.960;2023-01-16T15:55:50;95231.50;;;6.65;65.06
15884;BME280;8040;50.254;10.960;2023-01-16T15:58:19;95216.13;;;6.65;64.81
15884;BME280;8040;50.254;10.960;2023-01-16T16:00:56;95206.66;;;6.56;65.94
15884;BME280;8040;50.254;10.960;2023-01-16T16:03:27;95209.00;;;6.57;65.24
15884;BME280;8040;50.254;10.960;2023-01-16T16:05:59;95220.19;;;6.59;65.44